createdAt,value
2018-05-09T00:00:20.888Z,0.00
2018-05-09T00:01:20.868Z,0.00
2018-05-09T00:03:13.727Z,0.00
2018-05-09T00:04:13.698Z,0.00
2018-05-09T00:06:06.559Z,0.00
2018-05-09T00:07:06.531Z,0.00
2018-05-09T00:08:59.386Z,0.00
2018-05-09T00:09:59.364Z,0.00
2018-05-09T00:11:52.227Z,0.00
2018-05-09T00:12:52.196Z,0.00
2018-05-09T00:14:45.049Z,0.00
2018-05-09T00:15:45.029Z,0.00
2018-05-09T00:17:37.889Z,0.00
2018-05-09T00:18:37.860Z,0.00
2018-05-09T00:20:30.710Z,0.00
2018-05-09T00:21:30.689Z,0.00
2018-05-09T00:23:23.548Z,0.00
2018-05-09T00:24:23.518Z,0.00
2018-05-09T00:26:16.384Z,0.00
2018-05-09T00:27:16.350Z,0.00
2018-05-09T00:29:09.214Z,0.00
2018-05-09T00:30:09.193Z,0.00
2018-05-09T00:32:02.051Z,0.00
2018-05-09T00:33:02.025Z,0.00
2018-05-09T00:34:54.874Z,0.00
2018-05-09T00:35:54.853Z,0.00
2018-05-09T00:37:47.711Z,0.00
2018-05-09T00:38:47.687Z,0.00
2018-05-09T00:40:40.534Z,0.00
2018-05-09T00:41:40.543Z,0.00
2018-05-09T00:43:33.376Z,0.00
2018-05-09T00:44:33.353Z,0.00
2018-05-09T00:46:26.202Z,0.00
2018-05-09T00:47:26.177Z,0.00
2018-05-09T00:49:19.024Z,0.00
2018-05-09T00:50:19.007Z,0.00
2018-05-09T00:52:11.944Z,0.00
2018-05-09T00:53:11.838Z,0.00
2018-05-09T00:55:04.685Z,0.00
2018-05-09T00:56:04.667Z,0.00
2018-05-09T00:57:57.524Z,0.00
2018-05-09T00:58:57.496Z,0.00
2018-05-09T01:00:50.348Z,0.00
2018-05-09T01:01:50.328Z,0.00
2018-05-09T01:03:43.194Z,0.00
2018-05-09T01:04:43.167Z,0.00
2018-05-09T01:06:36.025Z,0.00
2018-05-09T01:07:35.997Z,0.00
2018-05-09T01:09:28.849Z,0.00
2018-05-09T01:10:28.829Z,0.00
2018-05-09T01:12:21.684Z,0.00
2018-05-09T01:13:21.665Z,0.00
2018-05-09T01:15:14.512Z,0.00
2018-05-09T01:16:14.493Z,0.00
2018-05-09T01:18:07.352Z,0.00
2018-05-09T01:19:07.324Z,0.00
2018-05-09T01:21:00.179Z,0.00
2018-05-09T01:22:00.155Z,0.00
2018-05-09T01:23:53.017Z,0.00
2018-05-09T01:24:52.989Z,0.00
2018-05-09T01:26:45.845Z,0.00
2018-05-09T01:27:45.818Z,0.00
2018-05-09T01:29:38.666Z,0.00
2018-05-09T01:30:38.648Z,0.00
2018-05-09T01:32:31.505Z,0.00
2018-05-09T01:33:31.475Z,0.00
2018-05-09T01:35:24.342Z,0.00
2018-05-09T01:36:24.322Z,0.00
2018-05-09T01:38:17.172Z,0.00
2018-05-09T01:39:17.148Z,0.00
2018-05-09T01:41:10.000Z,0.00
2018-05-09T01:42:09.979Z,0.00
2018-05-09T01:44:02.837Z,0.00
2018-05-09T01:45:02.810Z,0.00
2018-05-09T01:46:55.665Z,0.00
2018-05-09T01:47:55.638Z,0.00
2018-05-09T01:49:48.488Z,0.00
2018-05-09T01:50:48.465Z,0.00
2018-05-09T01:52:41.824Z,0.00
2018-05-09T01:53:41.797Z,0.00
2018-05-09T01:55:34.649Z,0.00
2018-05-09T01:56:34.629Z,0.00
2018-05-09T01:58:27.484Z,0.00
2018-05-09T01:59:27.457Z,0.00
2018-05-09T02:01:20.322Z,0.00
2018-05-09T02:02:20.290Z,0.00
2018-05-09T02:04:13.148Z,0.00
2018-05-09T02:05:13.122Z,0.00
2018-05-09T02:07:05.978Z,0.00
2018-05-09T02:08:05.950Z,0.00
2018-05-09T02:09:58.813Z,0.00
2018-05-09T02:10:58.775Z,0.00
2018-05-09T02:12:51.633Z,0.00
2018-05-09T02:13:51.605Z,0.00
2018-05-09T02:15:44.459Z,0.00
2018-05-09T02:16:44.436Z,0.00
2018-05-09T02:18:37.290Z,0.00
2018-05-09T02:19:37.263Z,0.00
2018-05-09T02:21:30.121Z,0.00
2018-05-09T02:22:30.092Z,0.00
2018-05-09T02:24:22.938Z,0.00
2018-05-09T02:25:22.918Z,0.00
2018-05-09T02:27:15.777Z,0.00
2018-05-09T02:28:15.746Z,0.00
2018-05-09T02:30:08.598Z,0.00
2018-05-09T02:31:08.654Z,0.00
2018-05-09T02:33:01.430Z,0.00
2018-05-09T02:34:01.404Z,0.00
2018-05-09T02:35:54.253Z,0.00
2018-05-09T02:36:54.233Z,0.00
2018-05-09T02:38:47.086Z,0.00
2018-05-09T02:39:47.061Z,0.00
2018-05-09T02:41:39.917Z,0.00
2018-05-09T02:42:39.889Z,0.00
2018-05-09T02:44:32.742Z,0.00
2018-05-09T02:45:32.726Z,0.00
2018-05-09T02:47:25.576Z,0.00
2018-05-09T02:48:25.550Z,0.00
2018-05-09T02:50:18.402Z,0.00
2018-05-09T02:51:18.378Z,0.00
2018-05-09T02:53:11.237Z,0.00
2018-05-09T02:54:11.210Z,0.00
2018-05-09T02:56:04.060Z,0.00
2018-05-09T02:57:04.043Z,0.00
2018-05-09T02:58:56.893Z,0.00
2018-05-09T02:59:56.868Z,0.00
2018-05-09T03:01:49.727Z,0.00
2018-05-09T03:02:49.697Z,0.00
2018-05-09T03:04:42.554Z,0.00
2018-05-09T03:05:42.529Z,0.00
2018-05-09T03:07:35.382Z,0.00
2018-05-09T03:08:35.354Z,0.00
2018-05-09T03:10:28.203Z,0.00
2018-05-09T03:11:28.186Z,0.00
2018-05-09T03:13:21.039Z,0.00
2018-05-09T03:14:21.011Z,4.00
2018-05-09T03:16:13.860Z,4.00
2018-05-09T03:17:13.839Z,0.00
2018-05-09T03:19:06.699Z,4.00
2018-05-09T03:20:06.671Z,4.00
2018-05-09T03:21:59.529Z,8.00
2018-05-09T03:22:59.499Z,4.00
2018-05-09T03:24:52.351Z,8.00
2018-05-09T03:25:52.329Z,8.00
2018-05-09T03:27:45.184Z,12.00
2018-05-09T03:28:45.157Z,16.00
2018-05-09T03:30:38.005Z,20.00
2018-05-09T03:31:37.986Z,24.00
2018-05-09T03:33:30.840Z,32.00
2018-05-09T03:34:30.811Z,36.00
2018-05-09T03:36:23.663Z,44.00
2018-05-09T03:37:23.649Z,52.00
2018-05-09T03:39:16.500Z,64.00
2018-05-09T03:40:16.471Z,72.00
2018-05-09T03:42:09.329Z,88.00
2018-05-09T03:43:09.300Z,100.00
2018-05-09T03:45:02.228Z,124.00
2018-05-09T03:46:02.131Z,136.00
2018-05-09T03:47:54.986Z,160.00
2018-05-09T03:48:54.959Z,180.00
2018-05-09T03:50:47.808Z,216.00
2018-05-09T03:51:47.788Z,232.00
2018-05-09T03:53:40.647Z,268.00
2018-05-09T03:54:40.618Z,288.00
2018-05-09T03:56:33.472Z,336.00
2018-05-09T03:57:33.450Z,360.00
2018-05-09T03:59:26.309Z,408.00
2018-05-09T04:00:26.279Z,436.00
2018-05-09T04:02:19.133Z,492.00
2018-05-09T04:03:19.109Z,528.00
2018-05-09T04:05:11.956Z,592.00
2018-05-09T04:06:11.935Z,628.00
2018-05-09T04:08:04.869Z,700.00
2018-05-09T04:09:04.766Z,748.00
2018-05-09T04:10:57.617Z,832.00
2018-05-09T04:11:57.596Z,884.00
2018-05-09T04:13:50.452Z,1012.00
2018-05-09T04:14:50.454Z,1104.00
2018-05-09T04:16:43.275Z,1272.00
2018-05-09T04:17:43.256Z,1368.00
2018-05-09T04:19:36.115Z,1556.00
2018-05-09T04:20:36.094Z,1668.00
2018-05-09T04:22:28.934Z,1864.00
2018-05-09T04:23:28.914Z,2028.00
2018-05-09T04:25:21.771Z,2280.00
2018-05-09T04:26:21.741Z,2396.00
2018-05-09T04:28:14.603Z,2628.00
2018-05-09T04:29:14.577Z,2748.00
2018-05-09T04:31:07.428Z,2992.00
2018-05-09T04:32:07.407Z,3120.00
2018-05-09T04:34:00.268Z,3368.00
2018-05-09T04:35:00.241Z,3504.00
2018-05-09T04:36:53.092Z,3760.00
2018-05-09T04:37:53.072Z,3912.00
2018-05-09T04:39:45.932Z,4196.00
2018-05-09T04:40:45.905Z,4360.00
2018-05-09T04:42:38.759Z,4652.00
2018-05-09T04:43:38.740Z,4812.00
2018-05-09T04:45:31.660Z,5096.00
2018-05-09T04:46:31.578Z,5252.00
2018-05-09T04:48:24.456Z,5564.00
2018-05-09T04:49:24.425Z,5724.00
2018-05-09T04:51:17.267Z,6040.00
2018-05-09T04:52:17.256Z,6188.00
2018-05-09T04:54:10.119Z,6472.00
2018-05-09T04:55:10.093Z,6636.00
2018-05-09T04:57:02.952Z,6956.00
2018-05-09T04:58:02.934Z,7116.00
2018-05-09T04:59:55.800Z,7424.00
2018-05-09T05:00:55.775Z,7576.00
2018-05-09T05:02:48.635Z,7856.00
2018-05-09T05:03:48.618Z,7996.00
2018-05-09T05:05:41.489Z,8296.00
2018-05-09T05:06:41.468Z,8480.00
2018-05-09T05:08:34.343Z,8752.00
2018-05-09T05:09:34.320Z,8920.00
2018-05-09T05:11:27.181Z,9272.00
2018-05-09T05:12:27.167Z,9416.00
2018-05-09T05:14:20.035Z,9816.00
2018-05-09T05:15:20.011Z,9964.00
2018-05-09T05:17:12.875Z,10312.00
2018-05-09T05:18:12.867Z,10476.00
2018-05-09T05:20:05.735Z,10712.00
2018-05-09T05:21:05.711Z,10800.00
2018-05-09T05:22:58.581Z,11108.00
2018-05-09T05:23:58.557Z,11180.00
2018-05-09T05:25:51.423Z,11388.00
2018-05-09T05:26:51.411Z,11396.00
2018-05-09T05:28:44.282Z,11804.00
2018-05-09T05:29:44.262Z,12188.00
2018-05-09T05:31:37.128Z,12824.00
2018-05-09T05:32:37.115Z,13052.00
2018-05-09T05:34:29.995Z,13764.00
2018-05-09T05:35:29.971Z,14204.00
2018-05-09T05:37:22.847Z,14960.00
2018-05-09T05:38:22.830Z,15244.00
2018-05-09T05:40:15.708Z,16096.00
2018-05-09T05:41:15.685Z,16864.00
2018-05-09T05:43:08.727Z,18496.00
2018-05-09T05:44:08.707Z,19328.00
2018-05-09T05:46:01.577Z,20192.00
2018-05-09T05:47:01.569Z,20224.00
2018-05-09T05:48:54.446Z,23424.00
2018-05-09T05:49:54.473Z,29216.00
2018-05-09T05:51:47.295Z,50560.00
2018-05-09T05:52:47.284Z,57792.00
2018-05-09T05:54:40.164Z,55648.00
2018-05-09T05:55:40.143Z,59168.00
2018-05-09T05:57:33.026Z,58080.00
2018-05-09T05:58:33.017Z,56864.00
2018-05-09T06:00:25.896Z,58528.00
2018-05-09T06:01:25.877Z,62144.00
2018-05-09T06:03:18.756Z,66304.00
2018-05-09T06:04:18.739Z,65248.00
2018-05-09T06:06:11.616Z,69536.00
2018-05-09T06:07:11.604Z,68928.00
2018-05-09T06:09:04.490Z,66240.00
2018-05-09T06:10:04.475Z,66208.00
2018-05-09T06:11:57.348Z,71136.00
2018-05-09T06:12:57.344Z,69248.00
2018-05-09T06:14:50.232Z,76096.00
2018-05-09T06:15:50.207Z,77664.00
2018-05-09T06:17:43.082Z,68960.00
2018-05-09T06:18:43.069Z,66432.00
2018-05-09T06:20:35.949Z,70720.00
2018-05-09T06:21:35.932Z,51616.00
2018-05-09T06:23:28.813Z,61024.00
2018-05-09T06:24:28.796Z,61536.00
2018-05-09T06:26:21.673Z,42528.00
2018-05-09T06:27:21.661Z,35968.00
2018-05-09T06:29:14.541Z,32000.00
2018-05-09T06:30:14.526Z,28768.00
2018-05-09T06:32:07.395Z,34784.00
2018-05-09T06:33:07.384Z,34304.00
2018-05-09T06:35:00.273Z,43072.00
2018-05-09T06:36:00.251Z,44928.00
2018-05-09T06:37:53.118Z,22624.00
2018-05-09T06:38:53.109Z,27968.00
2018-05-09T06:40:45.986Z,32128.00
2018-05-09T06:41:46.057Z,29856.00
2018-05-09T06:43:38.908Z,27456.00
2018-05-09T06:44:38.829Z,27584.00
2018-05-09T06:46:31.698Z,22976.00
2018-05-09T06:47:31.688Z,21920.00
2018-05-09T06:49:24.565Z,22208.00
2018-05-09T06:50:24.547Z,26368.00
2018-05-09T06:52:17.414Z,24736.00
2018-05-09T06:53:17.404Z,24192.00
2018-05-09T06:55:10.277Z,24608.00
2018-05-09T06:56:10.257Z,24288.00
2018-05-09T06:58:03.130Z,25376.00
2018-05-09T06:59:03.197Z,25888.00
2018-05-09T07:00:56.059Z,30880.00
2018-05-09T07:01:55.971Z,35744.00
2018-05-09T07:03:48.847Z,34592.00
2018-05-09T07:04:48.830Z,38848.00
2018-05-09T07:06:41.878Z,50656.00
2018-05-09T07:07:41.688Z,53888.00
2018-05-09T07:09:34.570Z,40672.00
2018-05-09T07:10:34.545Z,48352.00
2018-05-09T07:12:27.473Z,58048.00
2018-05-09T07:13:27.402Z,49312.00
2018-05-09T07:15:20.288Z,57376.00
2018-05-09T07:16:20.265Z,62560.00
2018-05-09T07:18:13.140Z,73696.00
2018-05-09T07:19:13.129Z,71552.00
2018-05-09T07:21:06.012Z,74720.00
2018-05-09T07:22:05.994Z,69152.00
2018-05-09T07:23:58.873Z,61536.00
2018-05-09T07:24:58.857Z,61760.00
2018-05-09T07:26:51.735Z,64576.00
2018-05-09T07:27:51.726Z,70016.00
2018-05-09T07:29:44.611Z,71264.00
2018-05-09T07:30:44.599Z,51520.00
2018-05-09T07:32:37.475Z,58112.00
2018-05-09T07:33:37.463Z,62400.00
2018-05-09T07:35:30.439Z,49088.00
2018-05-09T07:36:30.341Z,64096.00
2018-05-09T07:38:23.220Z,78368.00
2018-05-09T07:39:23.208Z,74272.00
2018-05-09T07:41:16.086Z,81408.00
2018-05-09T07:42:16.114Z,77888.00
2018-05-09T07:44:08.962Z,72160.00
2018-05-09T07:45:08.948Z,71744.00
2018-05-09T07:47:01.825Z,76608.00
2018-05-09T07:48:01.820Z,74016.00
2018-05-09T07:49:54.715Z,73728.00
2018-05-09T07:50:54.693Z,60640.00
2018-05-09T07:52:47.568Z,46016.00
2018-05-09T07:53:47.556Z,59296.00
2018-05-09T07:55:40.499Z,58720.00
2018-05-09T07:56:40.424Z,52384.00
2018-05-09T07:58:33.386Z,69856.00
2018-05-09T07:59:33.294Z,66912.00
2018-05-09T08:01:26.180Z,85376.00
2018-05-09T08:02:26.168Z,89408.00
2018-05-09T08:04:19.072Z,84160.00
2018-05-09T08:05:19.056Z,76640.00
2018-05-09T08:07:11.933Z,67584.00
2018-05-09T08:08:11.926Z,86592.00
2018-05-09T08:10:04.810Z,56096.00
2018-05-09T08:11:04.797Z,49152.00
2018-05-09T08:12:57.825Z,41120.00
2018-05-09T08:13:57.668Z,52192.00
2018-05-09T08:15:50.556Z,55968.00
2018-05-09T08:16:50.540Z,73536.00
2018-05-09T08:18:44.431Z,84640.00
2018-05-09T08:19:44.407Z,92384.00
2018-05-09T08:21:37.287Z,105120.00
2018-05-09T08:22:37.279Z,91872.00
2018-05-09T08:24:30.164Z,99744.00
2018-05-09T08:25:30.150Z,96288.00
2018-05-09T08:27:23.028Z,91456.00
2018-05-09T08:28:23.022Z,96864.00
2018-05-09T08:30:15.966Z,77856.00
2018-05-09T08:31:15.896Z,84288.00
2018-05-09T08:33:08.776Z,85664.00
2018-05-09T08:34:08.769Z,84448.00
2018-05-09T08:36:01.664Z,81184.00
2018-05-09T08:37:01.649Z,88704.00
2018-05-09T08:38:54.538Z,97792.00
2018-05-09T08:39:54.526Z,92608.00
2018-05-09T08:41:47.416Z,98464.00
2018-05-09T08:42:47.407Z,103072.00
2018-05-09T08:44:40.295Z,103968.00
2018-05-09T08:45:40.283Z,96064.00
2018-05-09T08:47:33.169Z,105568.00
2018-05-09T08:48:33.166Z,101792.00
2018-05-09T08:50:26.054Z,98592.00
2018-05-09T08:51:26.041Z,106528.00
2018-05-09T08:53:18.924Z,95072.00
2018-05-09T08:54:18.919Z,95552.00
2018-05-09T08:56:11.819Z,92224.00
2018-05-09T08:57:11.804Z,104192.00
2018-05-09T08:59:04.695Z,97920.00
2018-05-09T09:00:04.691Z,101568.00
2018-05-09T09:01:57.567Z,112448.00
2018-05-09T09:02:57.565Z,110208.00
2018-05-09T09:04:50.453Z,105600.00
2018-05-09T09:05:50.447Z,106464.00
2018-05-09T09:07:43.329Z,106944.00
2018-05-09T09:08:43.325Z,107168.00
2018-05-09T09:10:36.217Z,110560.00
2018-05-09T09:11:36.205Z,109408.00
2018-05-09T09:13:29.090Z,99936.00
2018-05-09T09:14:29.088Z,104544.00
2018-05-09T09:16:21.977Z,104288.00
2018-05-09T09:17:21.964Z,105792.00
2018-05-09T09:19:14.859Z,111648.00
2018-05-09T09:20:14.847Z,80096.00
2018-05-09T09:22:07.734Z,64352.00
2018-05-09T09:23:07.730Z,115744.00
2018-05-09T09:25:00.620Z,116800.00
2018-05-09T09:26:00.609Z,121088.00
2018-05-09T09:27:53.490Z,110624.00
2018-05-09T09:28:53.484Z,104672.00
2018-05-09T09:30:46.375Z,114528.00
2018-05-09T09:31:46.364Z,122048.00
2018-05-09T09:33:39.252Z,129984.00
2018-05-09T09:34:39.244Z,133248.00
2018-05-09T09:36:32.122Z,78848.00
2018-05-09T09:37:32.118Z,120512.00
2018-05-09T09:39:25.012Z,104192.00
2018-05-09T09:40:25.003Z,113024.00
2018-05-09T09:42:17.887Z,118016.00
2018-05-09T09:43:17.881Z,126400.00
2018-05-09T09:45:10.773Z,126016.00
2018-05-09T09:46:10.763Z,121504.00
2018-05-09T09:48:03.643Z,114464.00
2018-05-09T09:49:03.641Z,121504.00
2018-05-09T09:50:56.534Z,116160.00
2018-05-09T09:51:56.521Z,108256.00
2018-05-09T09:53:49.420Z,109664.00
2018-05-09T09:54:49.409Z,118368.00
2018-05-09T09:56:42.296Z,116864.00
2018-05-09T09:57:42.293Z,124512.00
2018-05-09T09:59:35.190Z,114112.00
2018-05-09T10:00:35.179Z,115744.00
2018-05-09T10:02:28.063Z,120416.00
2018-05-09T10:03:28.060Z,119040.00
2018-05-09T10:05:20.960Z,122944.00
2018-05-09T10:06:20.944Z,125760.00
2018-05-09T10:08:13.829Z,123936.00
2018-05-09T10:09:13.828Z,124128.00
2018-05-09T10:11:06.732Z,118336.00
2018-05-09T10:12:06.716Z,122112.00
2018-05-09T10:13:59.612Z,98368.00
2018-05-09T10:14:59.630Z,105888.00
2018-05-09T10:16:52.565Z,110624.00
2018-05-09T10:17:52.484Z,116672.00
2018-05-09T10:19:45.386Z,109408.00
2018-05-09T10:20:45.376Z,114464.00
2018-05-09T10:22:38.262Z,117568.00
2018-05-09T10:23:38.257Z,114400.00
2018-05-09T10:25:31.152Z,115424.00
2018-05-09T10:26:31.140Z,109920.00
2018-05-09T10:28:24.035Z,104384.00
2018-05-09T10:29:24.030Z,103008.00
2018-05-09T10:31:16.930Z,98112.00
2018-05-09T10:32:16.921Z,103232.00
2018-05-09T10:34:09.815Z,107168.00
2018-05-09T10:35:09.805Z,103040.00
2018-05-09T10:37:02.699Z,89216.00
2018-05-09T10:38:02.703Z,78752.00
2018-05-09T10:39:55.595Z,52832.00
2018-05-09T10:40:55.581Z,45280.00
2018-05-09T10:42:48.543Z,39584.00
2018-05-09T10:43:48.985Z,14520.00
2018-05-09T10:45:41.389Z,39328.00
2018-05-09T10:46:41.379Z,37120.00
2018-05-09T10:48:34.266Z,37056.00
2018-05-09T10:49:34.266Z,37152.00
2018-05-09T10:51:27.164Z,35904.00
2018-05-09T10:52:27.155Z,34880.00
2018-05-09T10:54:20.057Z,34080.00
2018-05-09T10:55:20.041Z,34560.00
2018-05-09T10:57:12.991Z,35392.00
2018-05-09T10:58:12.927Z,36096.00
2018-05-09T11:00:05.819Z,37120.00
2018-05-09T11:01:05.810Z,36928.00
2018-05-09T11:02:58.762Z,37184.00
2018-05-09T11:03:59.336Z,36640.00
2018-05-09T11:05:51.598Z,36000.00
2018-05-09T11:06:51.589Z,30624.00
2018-05-09T11:08:44.472Z,37024.00
2018-05-09T11:09:44.475Z,35200.00
2018-05-09T11:11:37.374Z,34592.00
2018-05-09T11:12:37.365Z,34720.00
2018-05-09T11:14:30.267Z,34080.00
2018-05-09T11:15:30.248Z,25280.00
2018-05-09T11:17:23.144Z,35072.00
2018-05-09T11:18:23.145Z,36064.00
2018-05-09T11:20:16.041Z,21056.00
2018-05-09T11:21:16.028Z,30368.00
2018-05-09T11:23:08.914Z,30656.00
2018-05-09T11:24:08.914Z,31072.00
2018-05-09T11:26:01.807Z,32480.00
2018-05-09T11:27:01.801Z,33344.00
2018-05-09T11:28:54.775Z,35168.00
2018-05-09T11:29:54.678Z,35456.00
2018-05-09T11:31:47.576Z,34304.00
2018-05-09T11:32:47.565Z,14848.00
2018-05-09T11:34:40.459Z,17356.00
2018-05-09T11:35:40.448Z,20192.00
2018-05-09T11:37:33.331Z,43520.00
2018-05-09T11:38:33.326Z,42432.00
2018-05-09T11:40:26.225Z,12888.00
2018-05-09T11:41:26.212Z,11900.00
2018-05-09T11:43:19.093Z,10872.00
2018-05-09T11:44:19.093Z,10376.00
2018-05-09T11:46:11.978Z,10584.00
2018-05-09T11:47:11.964Z,10876.00
2018-05-09T11:49:04.861Z,11732.00
2018-05-09T11:50:04.837Z,14412.00
2018-05-09T11:51:57.717Z,45984.00
2018-05-09T11:52:57.710Z,46016.00
2018-05-09T11:54:50.598Z,46688.00
2018-05-09T11:55:50.581Z,47008.00
2018-05-09T11:57:43.461Z,48576.00
2018-05-09T11:58:43.451Z,48448.00
2018-05-09T12:00:36.340Z,46464.00
2018-05-09T12:01:36.326Z,45728.00
2018-05-09T12:03:29.207Z,45632.00
2018-05-09T12:04:29.204Z,45632.00
2018-05-09T12:06:22.094Z,43616.00
2018-05-09T12:07:22.074Z,42496.00
2018-05-09T12:09:14.967Z,40832.00
2018-05-09T12:10:15.033Z,16892.00
2018-05-09T12:12:07.852Z,37568.00
2018-05-09T12:13:07.849Z,24512.00
2018-05-09T12:15:00.737Z,33312.00
2018-05-09T12:16:00.726Z,28736.00
2018-05-09T12:17:53.610Z,32448.00
2018-05-09T12:18:53.607Z,31872.00
2018-05-09T12:20:46.493Z,17124.00
2018-05-09T12:21:46.480Z,13672.00
2018-05-09T12:23:39.355Z,33280.00
2018-05-09T12:24:39.383Z,31808.00
2018-05-09T12:26:32.246Z,23776.00
2018-05-09T12:27:32.232Z,26528.00
2018-05-09T12:29:25.127Z,12588.00
2018-05-09T12:30:25.114Z,11876.00
2018-05-09T12:32:17.993Z,10356.00
2018-05-09T12:33:17.989Z,9728.00
2018-05-09T12:35:10.875Z,9116.00
2018-05-09T12:36:10.863Z,9484.00
2018-05-09T12:38:03.737Z,21920.00
2018-05-09T12:39:03.730Z,21600.00
2018-05-09T12:40:56.614Z,21344.00
2018-05-09T12:41:56.602Z,22048.00
2018-05-09T12:43:49.480Z,22720.00
2018-05-09T12:44:49.473Z,22816.00
2018-05-09T12:46:42.362Z,23040.00
2018-05-09T12:47:42.349Z,22976.00
2018-05-09T12:49:35.240Z,22912.00
2018-05-09T12:50:35.226Z,22752.00
2018-05-09T12:52:28.107Z,22720.00
2018-05-09T12:53:28.107Z,22688.00
2018-05-09T12:55:20.996Z,22976.00
2018-05-09T12:56:20.983Z,23488.00
2018-05-09T12:58:13.869Z,23104.00
2018-05-09T12:59:13.861Z,21408.00
2018-05-09T13:01:06.747Z,20384.00
2018-05-09T13:02:06.735Z,10080.00
2018-05-09T13:03:59.621Z,9828.00
2018-05-09T13:04:59.610Z,9980.00
2018-05-09T13:06:52.500Z,10784.00
2018-05-09T13:07:52.505Z,20288.00
2018-05-09T13:09:45.368Z,19392.00
2018-05-09T13:10:45.355Z,19040.00
2018-05-09T13:12:38.237Z,8104.00
2018-05-09T13:13:38.232Z,11240.00
2018-05-09T13:15:31.112Z,17668.00
2018-05-09T13:16:31.097Z,17368.00
2018-05-09T13:18:23.974Z,17368.00
2018-05-09T13:19:23.965Z,17416.00
2018-05-09T13:21:16.853Z,17920.00
2018-05-09T13:22:16.843Z,18016.00
2018-05-09T13:24:09.719Z,18176.00
2018-05-09T13:25:09.713Z,18336.00
2018-05-09T13:27:02.605Z,18496.00
2018-05-09T13:28:02.584Z,18336.00
2018-05-09T13:29:55.471Z,18208.00
2018-05-09T13:30:55.456Z,18080.00
2018-05-09T13:32:48.340Z,17664.00
2018-05-09T13:33:48.329Z,17760.00
2018-05-09T13:35:41.214Z,18176.00
2018-05-09T13:36:41.198Z,19104.00
2018-05-09T13:38:34.076Z,20896.00
2018-05-09T13:39:34.069Z,20576.00
2018-05-09T13:41:26.961Z,20352.00
2018-05-09T13:42:26.938Z,21248.00
2018-05-09T13:44:19.820Z,12740.00
2018-05-09T13:45:19.817Z,11736.00
2018-05-09T13:47:12.700Z,10252.00
2018-05-09T13:48:12.686Z,16260.00
2018-05-09T13:50:05.566Z,16916.00
2018-05-09T13:51:05.553Z,15776.00
2018-05-09T13:52:58.428Z,13408.00
2018-05-09T13:53:58.449Z,13236.00
2018-05-09T13:55:51.305Z,12440.00
2018-05-09T13:56:51.289Z,12136.00
2018-05-09T13:58:44.174Z,11876.00
2018-05-09T13:59:44.160Z,11808.00
2018-05-09T14:01:37.045Z,11668.00
2018-05-09T14:02:37.029Z,11524.00
2018-05-09T14:04:29.912Z,11280.00
2018-05-09T14:05:29.901Z,11224.00
2018-05-09T14:07:22.787Z,11272.00
2018-05-09T14:08:22.797Z,11304.00
2018-05-09T14:10:15.653Z,11560.00
2018-05-09T14:11:15.642Z,11652.00
2018-05-09T14:13:08.519Z,11224.00
2018-05-09T14:14:08.513Z,11036.00
2018-05-09T14:16:01.409Z,10960.00
2018-05-09T14:17:01.394Z,10908.00
2018-05-09T14:18:54.272Z,10892.00
2018-05-09T14:19:54.263Z,10884.00
2018-05-09T14:21:47.146Z,10680.00
2018-05-09T14:22:47.136Z,10592.00
2018-05-09T14:24:40.012Z,10272.00
2018-05-09T14:25:40.004Z,10284.00
2018-05-09T14:27:32.884Z,10152.00
2018-05-09T14:28:32.870Z,10036.00
2018-05-09T14:30:25.823Z,9976.00
2018-05-09T14:31:25.735Z,9964.00
2018-05-09T14:33:18.600Z,10056.00
2018-05-09T14:34:18.601Z,10108.00
2018-05-09T14:36:11.484Z,10184.00
2018-05-09T14:37:11.471Z,10160.00
2018-05-09T14:39:04.344Z,10180.00
2018-05-09T14:40:04.345Z,10340.00
2018-05-09T14:41:57.220Z,10804.00
2018-05-09T14:42:57.203Z,10948.00
2018-05-09T14:44:50.090Z,11352.00
2018-05-09T14:45:50.067Z,11516.00
2018-05-09T14:47:42.941Z,11044.00
2018-05-09T14:48:42.929Z,10580.00
2018-05-09T14:50:35.811Z,9908.00
2018-05-09T14:51:35.793Z,9284.00
2018-05-09T14:53:28.671Z,8308.00
2018-05-09T14:54:28.668Z,8388.00
2018-05-09T14:56:21.545Z,5932.00
2018-05-09T14:57:21.529Z,6768.00
2018-05-09T14:59:14.400Z,6604.00
2018-05-09T15:00:14.423Z,5980.00
2018-05-09T15:02:07.275Z,5904.00
2018-05-09T15:03:07.283Z,7116.00
2018-05-09T15:05:00.133Z,8024.00
2018-05-09T15:06:00.115Z,7996.00
2018-05-09T15:07:52.989Z,7920.00
2018-05-09T15:08:52.987Z,7964.00
2018-05-09T15:10:45.859Z,7868.00
2018-05-09T15:11:45.840Z,7820.00
2018-05-09T15:13:38.712Z,7800.00
2018-05-09T15:14:38.700Z,7796.00
2018-05-09T15:16:31.578Z,7788.00
2018-05-09T15:17:31.566Z,7704.00
2018-05-09T15:19:24.443Z,7292.00
2018-05-09T15:20:24.426Z,6960.00
2018-05-09T15:22:17.313Z,6244.00
2018-05-09T15:23:17.283Z,5920.00
2018-05-09T15:25:10.161Z,5600.00
2018-05-09T15:26:10.144Z,5488.00
2018-05-09T15:28:03.012Z,5464.00
2018-05-09T15:29:03.002Z,5488.00
2018-05-09T15:30:55.877Z,5496.00
2018-05-09T15:31:55.858Z,5552.00
2018-05-09T15:33:48.725Z,5796.00
2018-05-09T15:34:48.715Z,6032.00
2018-05-09T15:36:41.602Z,6332.00
2018-05-09T15:37:41.584Z,6304.00
2018-05-09T15:39:34.458Z,6160.00
2018-05-09T15:40:34.441Z,6044.00
2018-05-09T15:42:27.320Z,5924.00
2018-05-09T15:43:27.297Z,5860.00
2018-05-09T15:45:20.176Z,5928.00
2018-05-09T15:46:20.169Z,6080.00
2018-05-09T15:48:13.024Z,6212.00
2018-05-09T15:49:13.011Z,6204.00
2018-05-09T15:51:05.888Z,6156.00
2018-05-09T15:52:05.882Z,6076.00
2018-05-09T15:53:58.737Z,5996.00
2018-05-09T15:54:58.727Z,5968.00
2018-05-09T15:56:51.610Z,5828.00
2018-05-09T15:57:51.581Z,5740.00
2018-05-09T15:59:44.448Z,5652.00
2018-05-09T16:00:44.438Z,5704.00
2018-05-09T16:02:37.313Z,5700.00
2018-05-09T16:03:37.294Z,5704.00
2018-05-09T16:05:30.176Z,5816.00
2018-05-09T16:06:30.155Z,5888.00
2018-05-09T16:08:23.102Z,5884.00
2018-05-09T16:09:23.009Z,5816.00
2018-05-09T16:11:15.887Z,5616.00
2018-05-09T16:12:15.871Z,5488.00
2018-05-09T16:14:08.739Z,5400.00
2018-05-09T16:15:08.726Z,5396.00
2018-05-09T16:17:01.633Z,5492.00
2018-05-09T16:18:01.616Z,5588.00
2018-05-09T16:19:54.480Z,5544.00
2018-05-09T16:20:54.469Z,5420.00
2018-05-09T16:22:47.375Z,5264.00
2018-05-09T16:23:47.333Z,5252.00
2018-05-09T16:25:40.201Z,5080.00
2018-05-09T16:26:40.180Z,4940.00
2018-05-09T16:28:33.046Z,4712.00
2018-05-09T16:29:33.034Z,4648.00
2018-05-09T16:31:25.913Z,4544.00
2018-05-09T16:32:25.893Z,4472.00
2018-05-09T16:34:18.761Z,4344.00
2018-05-09T16:35:18.748Z,4288.00
2018-05-09T16:37:11.625Z,4268.00
2018-05-09T16:38:11.596Z,4292.00
2018-05-09T16:40:04.467Z,4324.00
2018-05-09T16:41:04.454Z,4324.00
2018-05-09T16:42:57.338Z,4316.00
2018-05-09T16:43:57.315Z,4316.00
2018-05-09T16:45:50.190Z,4188.00
2018-05-09T16:46:50.171Z,4060.00
2018-05-09T16:48:43.035Z,3848.00
2018-05-09T16:49:43.024Z,3780.00
2018-05-09T16:51:35.894Z,3672.00
2018-05-09T16:52:35.878Z,3608.00
2018-05-09T16:54:28.742Z,3448.00
2018-05-09T16:55:28.727Z,3372.00
2018-05-09T16:57:21.602Z,3276.00
2018-05-09T16:58:21.584Z,3240.00
2018-05-09T17:00:14.476Z,3192.00
2018-05-09T17:01:14.439Z,3176.00
2018-05-09T17:03:07.311Z,3200.00
2018-05-09T17:04:07.290Z,3220.00
2018-05-09T17:06:00.162Z,3216.00
2018-05-09T17:07:00.165Z,3212.00
2018-05-09T17:08:53.011Z,3188.00
2018-05-09T17:09:52.999Z,3172.00
2018-05-09T17:11:45.872Z,3128.00
2018-05-09T17:12:45.849Z,3112.00
2018-05-09T17:14:38.717Z,3068.00
2018-05-09T17:15:38.706Z,3048.00
2018-05-09T17:17:31.584Z,3016.00
2018-05-09T17:18:31.560Z,2996.00
2018-05-09T17:20:24.430Z,2952.00
2018-05-09T17:21:24.418Z,2924.00
2018-05-09T17:23:17.298Z,2900.00
2018-05-09T17:24:17.272Z,2880.00
2018-05-09T17:26:10.146Z,2848.00